Terminal Aerodrome Forecast
Issued by NWS

Home | Current Version | Previous Version | Text Only | Print | Product List | Glossary On
Versions: 1 2 3 4 5 6 7 8 9 10 11 12
000
FTUS42 KTBW 271700 RRA
TAFLAL
TAF
KLAL 271745Z 2718/2818 11003KT P6SM BKN025
     FM272100 VRB02KT P6SM SCT035 BKN050
     FM280900 VRB02KT 5SM BR SCT005 BKN010
     FM281400 VRB02KT 5SM BR SCT005=

USA.gov is the U.S. government's official web portal to all federal, state and local government web resources and services.